• Join FlightAware (Why Join?)
  • Login
  • US Flag 
12:52PM EDT


 

Airport Tracker/Info


-or-


 

Live Flight TrackerFlight Track Log ✈ KAP927 ✈ 20-Jun-2013 ✈ KOGS - KALB

Flight Track Log - Related Links

Times and Time Zones

All times are in EDT time to prevent confusion due to time zone crossing. See the KAP927 flight status page for this flight to view local times or setup timezone preferences in your user account.

Time Position Orientation Groundspeed Altitude Reporting Facility
EDT Latitude Longitude Course Direction KTS MPH feet Rate Location/Type
04:59PM 44.5792 -75.3372 149° Southeast 154 177 4,200  Level Boston Center
05:00PM 44.5486 -75.3067 145° Southeast 154 177 4,900 600 Climbing Boston Center
05:01PM 44.5161 -75.2731 144° Southeast 148 170 5,500 600 Climbing Boston Center
05:02PM 44.4833 -75.2481 151° Southeast 143 165 6,100 540 Climbing Boston Center
05:03PM 44.4486 -75.2175 148° Southeast 138 159 6,600 600 Climbing Boston Center
05:04PM 44.4902 -75.2947 149° Southeast  Level Estimated
05:04PM 44.4139 -75.1867 148° Southeast 138 159 7,300  Level Boston Center
05:05PM 44.3750 -75.1586 153° Southeast 138 159 7,500 120 Climbing Boston Center
05:06PM 44.3342 -75.1250 150° Southeast 157 181 7,600  Climbing Boston Center
05:07PM 44.2914 -75.0881 148° Southeast 168 193 7,600 -60 Level Boston Center
05:08PM 44.2483 -75.0514 149° Southeast 180 207 7,500 -60 Descending Boston Center
05:09PM 44.2056 -75.0147 148° Southeast 180 207 7,500  Level Boston Center
05:10PM 44.1644 -74.9783 148° Southeast 180 207 7,600  Climbing Boston Center
05:11PM 44.1236 -74.9447 149° Southeast 174 200 7,600  Level Boston Center
05:12PM 44.0847 -74.9114 148° Southeast 174 200 7,600  Level Boston Center
05:13PM 44.0439 -74.8778 149° Southeast 174 200 7,600  Level Boston Center
05:14PM 44.0050 -74.8444 148° Southeast 174 200 7,600  Level Boston Center
05:15PM 43.9639 -74.8111 150° Southeast 174 200 7,600  Level Boston Center
05:16PM 43.9331 -74.7839 148° Southeast 174 200 7,600  Level Boston Center
05:17PM 43.8922 -74.7536 152° Southeast 168 193 7,600  Level Boston Center
05:18PM 43.8511 -74.7144 146° Southeast 168 193 7,600  Level Boston Center
05:19PM 43.8206 -74.6903 150° Southeast 168 193 7,600  Level Boston Center
05:20PM 43.7714 -74.6453 147° Southeast 168 193 7,600  Level Boston Center
05:21PM 43.7322 -74.6181 153° Southeast 168 193 7,600  Level Boston Center
05:22PM 43.6911 -74.5822 148° Southeast 168 193 7,600  Level Boston Center
05:23PM 43.6522 -74.5492 148° Southeast 168 193 7,600 -60 Level Boston Center
05:24PM 43.6133 -74.5164 149° Southeast 163 188 7,500  Descending Boston Center
05:25PM 43.5722 -74.4806 148° Southeast 163 188 7,600  Climbing Boston Center
05:26PM 43.5311 -74.4506 152° Southeast 163 188 7,600  Level Boston Center
05:27PM 43.4900 -74.4147 148° Southeast 163 188 7,600  Level Boston Center
05:28PM 43.4489 -74.3819 150° Southeast 168 193 7,600  Level Boston Center
05:29PM 43.4200 -74.3553 146° Southeast 173 199 7,600 -60 Level Boston Center
05:30PM 43.3689 -74.3108 148° Southeast 168 193 7,500  Descending Boston Center
05:31PM 43.3297 -74.2839 153° Southeast 173 199 7,600  Climbing Boston Center
05:32PM 43.2844 -74.2425 146° Southeast 173 199 7,500 -240 Descending Boston Center
05:33PM 43.2453 -74.2158 154° Southeast 180 207 7,200 -480 Descending Boston Center
05:34PM 43.2019 -74.1803 149° Southeast 189 217 6,700 -540 Descending Boston Center
05:35PM 43.1589 -74.1392 145° Southeast 190 219 6,200 -660 Descending Boston Center
05:36PM 43.1075 -74.0894 145° Southeast 188 216 5,400 -540 Descending Boston Center
05:37PM 43.0664 -74.0458 142° Southeast 188 216 5,000 -540 Descending Boston Center
05:38PM 43.0275 -74.0050 142° Southeast 188 216 4,400 -600 Descending Boston Center
05:39PM 42.9822 -73.9583 143° Southeast 188 216 3,900 -480 Descending Boston Center
05:40PM 42.9408 -73.9264 151° Southeast 175 201 3,500 -360 Descending Boston Center
05:41PM 42.9017 -73.8883 145° Southeast 188 216 3,200 -480 Descending Boston Center
05:42PM 42.8686 -73.8650 153° Southeast 174 200 2,700 -780 Descending Boston Center
05:43PM 42.8192 -73.8242 149° Southeast 175 201 1,700 -900 Descending Boston Center
05:44PM 42.7736 -73.8064 164° South 141 162 800 -840 Descending Boston Center
05:46PM 42.7491 -73.8020 160° South  Level Estimated
05:53PM 42.7491 -73.8020 160° South  Level Estimated
05:54PM 42.7491 -73.8020 160° South  Level Estimated
05:55PM 42.7491 -73.8020 160° South  Level Estimated
05:56PM 42.7491 -73.8020 160° South  Level Estimated